createdAt,value
2022-07-31T00:02:51.093Z,3.90
2022-07-31T00:06:52.565Z,4.60
2022-07-31T00:10:54.068Z,4.20
2022-07-31T00:14:55.536Z,4.20
2022-07-31T00:18:56.989Z,4.07
2022-07-31T00:22:58.692Z,3.75
2022-07-31T00:27:00.364Z,3.22
2022-07-31T00:31:01.953Z,3.35
2022-07-31T00:35:04.061Z,3.10
2022-07-31T00:39:06.068Z,3.30
2022-07-31T00:43:07.550Z,2.90
2022-07-31T00:47:09.225Z,2.95
2022-07-31T00:51:10.675Z,3.60
2022-07-31T00:55:12.092Z,3.63
2022-07-31T00:59:13.497Z,3.65
2022-07-31T01:03:15.472Z,3.22
2022-07-31T01:07:16.997Z,3.72
2022-07-31T01:11:34.096Z,3.65
2022-07-31T01:15:37.591Z,3.75
2022-07-31T01:19:42.851Z,3.45
2022-07-31T01:24:15.689Z,3.60
2022-07-31T01:28:48.115Z,4.38
2022-07-31T01:32:50.633Z,4.20
2022-07-31T01:36:58.434Z,3.15
2022-07-31T01:41:03.028Z,4.22
2022-07-31T01:45:06.343Z,3.83
2022-07-31T01:49:08.902Z,4.53
2022-07-31T01:53:13.430Z,4.45
2022-07-31T01:57:18.537Z,4.65
2022-07-31T02:01:25.353Z,3.85
2022-07-31T02:05:29.249Z,4.45
2022-07-31T02:09:32.447Z,3.83
2022-07-31T02:13:34.014Z,3.13
2022-07-31T02:17:36.212Z,2.90
2022-07-31T02:21:37.696Z,3.05
2022-07-31T02:25:39.873Z,3.67
2022-07-31T02:29:42.126Z,3.80
2022-07-31T02:33:46.472Z,4.43
2022-07-31T02:37:51.054Z,4.10
2022-07-31T02:41:52.954Z,4.13
2022-07-31T02:45:56.055Z,4.00
2022-07-31T02:49:58.145Z,3.80
2022-07-31T02:53:59.591Z,4.20
2022-07-31T02:58:02.841Z,3.80
2022-07-31T03:02:05.791Z,4.25
2022-07-31T03:06:07.531Z,3.97
2022-07-31T03:10:13.095Z,3.70
2022-07-31T03:14:15.408Z,3.47
2022-07-31T03:18:21.751Z,4.50
2022-07-31T03:22:23.424Z,3.88
2022-07-31T03:26:25.567Z,4.35
2022-07-31T03:30:27.030Z,4.18
2022-07-31T03:34:28.442Z,4.20
2022-07-31T03:38:38.987Z,4.30
2022-07-31T03:42:44.361Z,4.07
2022-07-31T03:46:46.156Z,3.60
2022-07-31T03:50:47.665Z,4.82
2022-07-31T03:54:49.712Z,4.45
2022-07-31T03:58:52.715Z,4.35
2022-07-31T04:02:56.049Z,4.95
2022-07-31T04:06:57.584Z,3.97
2022-07-31T04:10:59.069Z,4.78
2022-07-31T04:15:00.512Z,5.43
2022-07-31T04:19:01.941Z,4.88
2022-07-31T04:23:04.047Z,4.80
2022-07-31T04:27:12.748Z,4.63
2022-07-31T04:31:14.496Z,5.03
2022-07-31T04:35:15.953Z,5.28
2022-07-31T04:39:17.423Z,5.00
2022-07-31T04:43:19.596Z,5.80
2022-07-31T04:47:21.041Z,5.63
2022-07-31T04:51:24.222Z,5.03
2022-07-31T04:55:25.875Z,5.80
2022-07-31T04:59:59.027Z,4.53
2022-07-31T05:03:48.938Z,4.68
2022-07-31T05:07:50.406Z,4.70
2022-07-31T05:11:52.852Z,3.55
2022-07-31T05:15:54.315Z,3.45
2022-07-31T05:19:55.795Z,3.38
2022-07-31T05:23:58.409Z,3.30
2022-07-31T05:27:59.805Z,3.00
2022-07-31T05:32:01.799Z,3.05
2022-07-31T05:36:03.826Z,2.78
2022-07-31T05:40:06.034Z,2.90
2022-07-31T05:44:08.163Z,3.00
2022-07-31T05:48:09.605Z,2.78
2022-07-31T05:52:11.005Z,2.47
2022-07-31T05:56:12.501Z,2.80
2022-07-31T06:00:16.292Z,2.22
2022-07-31T06:04:19.059Z,3.20
2022-07-31T06:08:20.574Z,2.53
2022-07-31T06:12:22.075Z,2.60
2022-07-31T06:16:23.567Z,3.03
2022-07-31T06:20:25.468Z,2.58
2022-07-31T06:24:27.090Z,2.88
2022-07-31T06:28:41.446Z,2.38
2022-07-31T06:32:50.476Z,2.33
2022-07-31T06:36:51.948Z,4.07
2022-07-31T06:40:53.305Z,2.10
2022-07-31T06:44:54.996Z,3.00
2022-07-31T06:48:56.681Z,2.50
2022-07-31T06:52:58.140Z,2.80
2022-07-31T06:56:59.630Z,2.38
2022-07-31T07:01:01.060Z,2.22
2022-07-31T07:05:05.765Z,2.00
2022-07-31T07:09:08.173Z,2.85
2022-07-31T07:13:09.763Z,2.15
2022-07-31T07:17:11.239Z,2.47
2022-07-31T07:21:12.751Z,2.95
2022-07-31T07:25:15.303Z,2.30
2022-07-31T07:29:24.449Z,2.05
2022-07-31T07:33:40.903Z,2.22
2022-07-31T07:38:05.252Z,2.03
2022-07-31T07:42:09.865Z,2.00
2022-07-31T07:46:11.456Z,1.83
2022-07-31T07:50:12.969Z,2.00
2022-07-31T07:54:17.179Z,2.03
2022-07-31T07:58:18.699Z,1.98
2022-07-31T08:02:20.177Z,2.08
2022-07-31T08:06:23.322Z,1.63
2022-07-31T08:10:24.883Z,1.80
2022-07-31T08:14:26.694Z,1.95
2022-07-31T08:18:28.520Z,2.28
2022-07-31T08:22:30.154Z,2.92
2022-07-31T08:26:52.305Z,2.47
2022-07-31T08:30:54.076Z,2.53
2022-07-31T08:34:55.934Z,2.75
2022-07-31T08:38:57.421Z,3.00
2022-07-31T08:43:00.955Z,2.50
2022-07-31T08:47:07.035Z,2.67
2022-07-31T08:51:11.836Z,2.75
2022-07-31T08:55:55.478Z,2.03
2022-07-31T08:59:37.990Z,1.67
2022-07-31T09:03:39.671Z,1.73
2022-07-31T09:07:41.168Z,1.40
2022-07-31T09:11:50.102Z,1.77
2022-07-31T09:15:52.654Z,1.45
2022-07-31T09:19:55.140Z,1.75
2022-07-31T09:23:56.674Z,1.25
2022-07-31T09:28:06.205Z,1.77
2022-07-31T09:32:13.453Z,1.55
2022-07-31T09:40:21.109Z,1.35
2022-07-31T09:44:26.132Z,1.63
2022-07-31T09:48:28.944Z,1.27
2022-07-31T09:52:32.372Z,1.15
2022-07-31T09:56:34.900Z,1.23
2022-07-31T10:00:39.722Z,1.33
2022-07-31T10:04:42.608Z,1.40
2022-07-31T10:08:46.231Z,1.58
2022-07-31T10:12:51.993Z,1.20
2022-07-31T10:16:56.958Z,1.20
2022-07-31T10:20:59.267Z,1.55
2022-07-31T10:25:03.546Z,1.17
2022-07-31T10:29:05.004Z,1.77
2022-07-31T10:33:17.514Z,1.10
2022-07-31T10:37:45.867Z,1.00
2022-07-31T10:41:56.465Z,1.42
2022-07-31T10:45:58.556Z,1.27
2022-07-31T10:50:00.375Z,1.50
2022-07-31T10:54:07.848Z,1.05
2022-07-31T10:58:11.007Z,1.10
2022-07-31T11:02:12.666Z,1.38
2022-07-31T11:06:16.166Z,1.35
2022-07-31T11:10:20.914Z,0.93
2022-07-31T11:14:36.101Z,0.88
2022-07-31T11:18:37.737Z,1.35
2022-07-31T11:22:41.219Z,1.23
2022-07-31T11:26:55.267Z,1.30
2022-07-31T11:31:07.039Z,1.20
2022-07-31T11:35:09.063Z,1.30
2022-07-31T11:39:13.107Z,1.40
2022-07-31T11:43:26.222Z,1.35
2022-07-31T11:48:12.688Z,1.83
2022-07-31T11:52:31.123Z,1.23
2022-07-31T11:56:39.933Z,1.42
2022-07-31T12:00:51.639Z,1.60
2022-07-31T12:05:08.337Z,1.40
2022-07-31T12:10:00.925Z,1.00
2022-07-31T12:13:39.921Z,1.55
2022-07-31T12:17:41.710Z,1.27
2022-07-31T12:21:43.968Z,1.40
2022-07-31T12:25:46.399Z,1.35
2022-07-31T12:29:47.828Z,1.10
2022-07-31T12:33:49.493Z,1.20
2022-07-31T12:37:52.837Z,1.45
2022-07-31T12:41:54.342Z,1.40
2022-07-31T12:46:00.132Z,1.40
2022-07-31T12:50:01.907Z,1.50
2022-07-31T12:54:04.721Z,1.33
2022-07-31T12:58:06.327Z,1.88
2022-07-31T13:02:08.055Z,1.25
2022-07-31T13:06:09.501Z,1.33
2022-07-31T13:10:19.827Z,1.15
2022-07-31T13:14:25.708Z,1.20
2022-07-31T13:18:27.121Z,2.05
2022-07-31T13:22:28.593Z,1.20
2022-07-31T13:26:30.027Z,1.08
2022-07-31T13:30:54.673Z,0.90
2022-07-31T13:35:27.264Z,1.30
2022-07-31T13:39:18.729Z,1.40
2022-07-31T13:43:20.332Z,1.58
2022-07-31T13:47:21.803Z,1.00
2022-07-31T13:51:24.778Z,1.40
2022-07-31T13:55:30.575Z,0.95
2022-07-31T13:59:34.017Z,1.38
2022-07-31T14:03:35.503Z,1.15
2022-07-31T14:07:45.322Z,1.08
2022-07-31T14:11:54.831Z,1.08
2022-07-31T14:16:03.482Z,1.55
2022-07-31T14:20:13.336Z,1.58
2022-07-31T14:24:15.012Z,1.73
2022-07-31T14:28:27.600Z,0.80
2022-07-31T14:32:41.998Z,1.00
2022-07-31T14:36:43.637Z,1.00
2022-07-31T14:40:48.065Z,0.98
2022-07-31T14:44:57.616Z,1.10
2022-07-31T15:08:25.351Z,1.75
2022-07-31T15:12:49.788Z,1.20
2022-07-31T15:21:22.444Z,0.98
2022-07-31T15:29:25.565Z,1.27
2022-07-31T15:33:46.997Z,1.67
2022-07-31T15:37:49.623Z,1.45
2022-07-31T15:41:52.947Z,1.75
2022-07-31T15:45:54.383Z,1.40
2022-07-31T15:49:55.821Z,1.33
2022-07-31T15:53:57.237Z,1.45
2022-07-31T15:57:58.733Z,1.10
2022-07-31T16:02:00.250Z,1.60
2022-07-31T16:06:03.642Z,1.20
2022-07-31T16:10:15.808Z,1.10
2022-07-31T16:14:18.569Z,1.25
2022-07-31T16:18:20.180Z,1.02
2022-07-31T16:22:21.596Z,1.20
2022-07-31T16:26:23.036Z,1.48
2022-07-31T16:30:26.292Z,0.90
2022-07-31T16:34:27.750Z,1.98
2022-07-31T16:38:29.511Z,1.00
2022-07-31T16:42:30.953Z,1.30
2022-07-31T16:46:32.359Z,1.48
2022-07-31T16:50:33.870Z,1.58
2022-07-31T16:54:35.336Z,1.50
2022-07-31T16:58:36.807Z,1.40
2022-07-31T17:02:38.283Z,1.23
2022-07-31T17:06:39.800Z,1.45
2022-07-31T17:10:41.325Z,1.23
2022-07-31T17:14:43.883Z,1.30
2022-07-31T17:18:52.628Z,1.10
2022-07-31T17:22:56.009Z,1.58
2022-07-31T17:26:57.564Z,1.25
2022-07-31T17:30:59.031Z,1.48
2022-07-31T17:35:01.696Z,1.65
2022-07-31T17:39:04.154Z,1.70
2022-07-31T17:43:05.658Z,1.25
2022-07-31T17:47:08.257Z,1.30
2022-07-31T17:51:10.593Z,1.10
2022-07-31T17:55:12.200Z,1.40
2022-07-31T17:59:13.717Z,1.58
2022-07-31T18:03:15.186Z,1.52
2022-07-31T18:07:17.950Z,1.58
2022-07-31T18:11:19.880Z,1.25
2022-07-31T18:15:21.415Z,1.23
2022-07-31T18:19:35.941Z,1.70
2022-07-31T18:23:43.544Z,1.33
2022-07-31T18:27:48.656Z,1.45
2022-07-31T18:31:50.205Z,1.35
2022-07-31T18:35:51.632Z,1.40
2022-07-31T18:39:53.890Z,8.88
2022-07-31T18:43:55.858Z,10.80
2022-07-31T18:48:54.821Z,34.22
2022-07-31T18:52:57.349Z,47.55
2022-07-31T18:57:03.448Z,18.17
2022-07-31T19:01:05.619Z,9.80
2022-07-31T19:05:13.715Z,2.38
2022-07-31T19:09:24.998Z,1.50
2022-07-31T19:13:38.539Z,1.52
2022-07-31T19:17:44.428Z,1.67
2022-07-31T19:21:51.301Z,1.20
2022-07-31T19:26:03.095Z,1.67
2022-07-31T19:30:10.208Z,1.70
2022-07-31T19:34:13.781Z,2.05
2022-07-31T19:38:17.327Z,1.75
2022-07-31T19:47:25.847Z,1.40
2022-07-31T19:51:38.219Z,1.52
2022-07-31T19:55:46.641Z,1.00
2022-07-31T19:59:48.885Z,1.65
2022-07-31T20:14:14.972Z,1.23
2022-07-31T20:18:27.315Z,1.02
2022-07-31T20:22:29.673Z,1.30
2022-07-31T20:26:36.825Z,0.90
2022-07-31T20:30:38.284Z,1.38
2022-07-31T20:34:46.200Z,1.30
2022-07-31T20:38:48.142Z,1.50
2022-07-31T20:42:49.910Z,1.10
2022-07-31T20:47:03.032Z,1.05
2022-07-31T20:56:53.998Z,1.20
2022-07-31T21:01:43.846Z,1.00
2022-07-31T21:59:45.160Z,1.80
2022-07-31T22:03:57.966Z,0.90
2022-07-31T22:08:20.777Z,1.17
2022-07-31T22:12:45.722Z,1.10
2022-07-31T22:17:17.263Z,1.27
2022-07-31T22:21:31.457Z,1.20
2022-07-31T22:25:59.489Z,1.35
2022-07-31T22:30:38.552Z,1.30
2022-07-31T22:50:19.206Z,1.25
2022-07-31T22:54:23.102Z,1.55
2022-07-31T22:58:30.763Z,1.80
2022-07-31T23:02:58.157Z,1.73
2022-07-31T23:11:24.466Z,1.33
2022-07-31T23:15:42.685Z,1.30
2022-07-31T23:19:54.147Z,1.58
2022-07-31T23:24:03.925Z,1.42
2022-07-31T23:33:46.448Z,1.60
2022-07-31T23:43:54.412Z,1.50
2022-07-31T23:47:59.911Z,1.42
